createdAt,value
2019-03-08T00:00:06.933Z,47.40
2019-03-08T00:03:11.859Z,47.67
2019-03-08T00:06:16.396Z,45.63
2019-03-08T00:09:21.617Z,47.93
2019-03-08T00:12:26.367Z,49.10
2019-03-08T00:15:31.063Z,49.17
2019-03-08T00:18:35.824Z,50.20
2019-03-08T00:21:40.434Z,49.87
2019-03-08T00:24:45.371Z,52.40
2019-03-08T00:27:50.222Z,49.10
2019-03-08T00:30:55.138Z,51.50
2019-03-08T00:33:59.861Z,50.87
2019-03-08T00:37:06.064Z,50.27
2019-03-08T00:40:10.967Z,53.53
2019-03-08T00:43:15.799Z,50.07
2019-03-08T00:46:20.630Z,48.63
2019-03-08T00:49:25.455Z,51.33
2019-03-08T00:52:30.289Z,51.67
2019-03-08T00:55:35.039Z,52.60
2019-03-08T00:58:41.628Z,53.00
2019-03-08T01:01:46.530Z,52.03
2019-03-08T01:04:51.369Z,51.13
2019-03-08T01:07:56.297Z,51.47
2019-03-08T01:11:00.796Z,52.23
2019-03-08T01:14:05.544Z,50.10
2019-03-08T01:17:10.304Z,52.20
2019-03-08T01:20:15.895Z,53.20
2019-03-08T01:23:20.775Z,50.43
2019-03-08T01:26:25.346Z,49.93
2019-03-08T01:29:29.994Z,50.27
2019-03-08T01:32:34.821Z,50.30
2019-03-08T01:35:39.656Z,51.00
2019-03-08T01:38:44.672Z,49.63
2019-03-08T01:41:49.317Z,49.03
2019-03-08T01:44:54.156Z,47.83
2019-03-08T01:47:58.853Z,47.80
2019-03-08T01:51:05.281Z,46.60
2019-03-08T01:54:10.056Z,47.47
2019-03-08T01:57:14.811Z,46.23
2019-03-08T02:00:19.912Z,45.53
2019-03-08T02:03:24.778Z,45.23
2019-03-08T02:06:29.490Z,45.10
2019-03-08T02:09:34.209Z,44.03
2019-03-08T02:12:39.078Z,43.47
2019-03-08T02:15:43.756Z,41.10
2019-03-08T02:18:48.533Z,43.50
2019-03-08T02:21:53.524Z,42.07
2019-03-08T02:24:58.263Z,42.17
2019-03-08T02:28:02.982Z,42.23
2019-03-08T02:31:07.816Z,40.90
2019-03-08T02:34:12.647Z,39.83
2019-03-08T02:37:17.484Z,39.97
2019-03-08T02:40:47.094Z,41.13
2019-03-08T02:43:51.912Z,40.50
2019-03-08T02:46:56.564Z,39.27
2019-03-08T02:50:01.363Z,38.27
2019-03-08T02:53:05.988Z,39.27
2019-03-08T02:56:10.923Z,37.80
2019-03-08T02:59:15.775Z,37.23
2019-03-08T03:02:21.725Z,37.00
2019-03-08T03:05:26.452Z,36.77
2019-03-08T03:08:31.243Z,36.63
2019-03-08T03:11:38.016Z,36.03
2019-03-08T03:14:42.878Z,34.90
2019-03-08T03:17:47.916Z,34.27
2019-03-08T03:20:52.428Z,34.23
2019-03-08T03:23:57.147Z,33.60
2019-03-08T03:27:01.980Z,34.03
2019-03-08T03:30:06.809Z,33.93
2019-03-08T03:33:11.662Z,32.53
2019-03-08T03:36:16.431Z,33.80
2019-03-08T03:39:21.125Z,33.40
2019-03-08T03:42:25.856Z,33.10
2019-03-08T03:45:30.662Z,32.30
2019-03-08T03:48:35.611Z,32.93
2019-03-08T03:51:40.119Z,31.87
2019-03-08T03:54:44.862Z,31.77
2019-03-08T03:57:49.886Z,32.57
2019-03-08T04:00:56.206Z,31.70
2019-03-08T04:04:01.130Z,30.53
2019-03-08T04:07:06.008Z,30.97
2019-03-08T04:10:11.667Z,28.80
2019-03-08T04:13:16.386Z,28.90
2019-03-08T04:16:21.130Z,25.17
2019-03-08T04:19:25.848Z,22.50
2019-03-08T04:22:33.093Z,18.43
2019-03-08T04:25:37.560Z,17.73
2019-03-08T04:28:42.700Z,17.10
2019-03-08T04:31:47.563Z,17.93
2019-03-08T04:34:52.250Z,16.27
2019-03-08T04:37:56.800Z,18.27
2019-03-08T04:41:02.286Z,18.17
2019-03-08T04:44:07.056Z,18.37
2019-03-08T04:47:11.864Z,19.27
2019-03-08T04:50:16.625Z,20.30
2019-03-08T04:53:21.446Z,16.33
2019-03-08T04:56:26.195Z,15.73
2019-03-08T04:59:31.318Z,17.90
2019-03-08T05:02:36.132Z,18.40
2019-03-08T05:05:40.874Z,21.70
2019-03-08T05:08:45.870Z,21.90
2019-03-08T05:11:50.670Z,18.97
2019-03-08T05:14:55.563Z,21.60
2019-03-08T05:18:00.235Z,19.30
2019-03-08T05:21:04.629Z,20.67
2019-03-08T05:24:09.576Z,21.73
2019-03-08T05:27:14.169Z,21.30
2019-03-08T05:30:18.558Z,20.00
2019-03-08T05:33:23.097Z,21.23
2019-03-08T05:36:27.757Z,23.37
2019-03-08T05:39:32.669Z,23.83
2019-03-08T05:42:37.283Z,24.87
2019-03-08T05:45:42.272Z,22.20
2019-03-08T05:48:47.056Z,21.37
2019-03-08T05:51:51.900Z,21.97
2019-03-08T05:54:56.708Z,22.27
2019-03-08T05:58:01.456Z,22.10
2019-03-08T06:01:06.285Z,22.53
2019-03-08T06:04:11.126Z,21.87
2019-03-08T06:07:16.956Z,22.10
2019-03-08T06:10:32.236Z,22.40
2019-03-08T06:13:37.116Z,22.90
2019-03-08T06:16:41.808Z,25.90
2019-03-08T06:19:46.609Z,24.40
2019-03-08T06:22:51.452Z,25.50
2019-03-08T06:25:56.292Z,25.57
2019-03-08T06:29:00.997Z,26.53
2019-03-08T06:32:05.755Z,30.33
2019-03-08T06:35:10.567Z,32.70
2019-03-08T06:38:16.271Z,36.97
2019-03-08T06:41:20.941Z,36.57
2019-03-08T06:44:25.573Z,41.23
2019-03-08T06:47:32.137Z,42.40
2019-03-08T06:50:37.299Z,43.90
2019-03-08T06:53:42.010Z,46.67
2019-03-08T06:56:46.897Z,48.93
2019-03-08T07:00:07.805Z,50.83
2019-03-08T07:03:12.453Z,49.30
2019-03-08T07:06:17.096Z,52.57
2019-03-08T07:09:21.792Z,53.40
2019-03-08T07:12:26.765Z,52.50
2019-03-08T07:15:31.494Z,52.13
2019-03-08T07:18:36.309Z,50.67
2019-03-08T07:22:00.111Z,52.63
2019-03-08T07:25:23.623Z,51.07
2019-03-08T07:28:57.509Z,51.60
2019-03-08T07:32:15.175Z,50.40
2019-03-08T07:35:51.827Z,50.60
2019-03-08T07:39:14.381Z,52.43
2019-03-08T07:42:40.582Z,49.87
2019-03-08T07:46:12.759Z,49.97
2019-03-08T07:49:36.458Z,51.07
2019-03-08T07:53:03.222Z,52.20
2019-03-08T07:56:33.007Z,51.60
2019-03-08T07:59:54.240Z,50.10
2019-03-08T08:03:23.668Z,50.97
2019-03-08T08:06:37.512Z,50.60
2019-03-08T08:09:59.997Z,51.53
2019-03-08T08:13:29.454Z,48.77
2019-03-08T08:16:55.884Z,47.70
2019-03-08T08:20:19.454Z,47.57
2019-03-08T08:23:34.747Z,48.93
2019-03-08T08:27:04.067Z,47.00
2019-03-08T08:30:29.700Z,45.43
2019-03-08T08:33:56.513Z,45.13
2019-03-08T08:37:20.508Z,45.50
2019-03-08T08:40:37.979Z,45.83
2019-03-08T08:44:10.983Z,43.33
2019-03-08T08:47:37.551Z,45.20
2019-03-08T08:50:53.531Z,45.07
2019-03-08T08:54:09.343Z,43.23
2019-03-08T08:57:35.780Z,42.27
2019-03-08T09:00:58.217Z,42.57
2019-03-08T09:04:27.987Z,42.40
2019-03-08T09:07:47.010Z,42.57
2019-03-08T09:11:13.629Z,41.77
2019-03-08T09:14:24.706Z,42.03
2019-03-08T09:17:53.623Z,41.53
2019-03-08T09:21:15.089Z,41.80
2019-03-08T09:24:57.028Z,43.00
2019-03-08T09:28:23.427Z,41.27
2019-03-08T09:31:34.031Z,40.60
2019-03-08T09:34:55.689Z,41.37
2019-03-08T09:38:17.589Z,40.33
2019-03-08T09:41:34.952Z,39.50
2019-03-08T09:44:58.400Z,41.80
2019-03-08T09:48:15.130Z,40.27
2019-03-08T09:51:27.800Z,41.80
2019-03-08T09:54:54.272Z,42.90
2019-03-08T09:58:07.158Z,48.00
2019-03-08T10:01:18.042Z,45.33
2019-03-08T10:04:40.468Z,49.37
2019-03-08T10:07:58.207Z,47.87
2019-03-08T10:11:09.101Z,49.60
2019-03-08T10:14:44.669Z,50.00
2019-03-08T10:18:19.013Z,53.30
2019-03-08T10:21:40.414Z,56.40
2019-03-08T10:25:01.457Z,52.57
2019-03-08T10:28:25.158Z,52.37
2019-03-08T10:31:34.624Z,54.63
2019-03-08T10:34:58.355Z,58.43
2019-03-08T10:38:10.345Z,57.53
2019-03-08T10:41:27.596Z,57.70
2019-03-08T10:45:00.458Z,56.67
2019-03-08T10:48:24.231Z,55.90
2019-03-08T10:51:47.757Z,54.93
2019-03-08T10:55:03.760Z,55.60
2019-03-08T10:58:30.260Z,59.90
2019-03-08T11:01:44.845Z,60.53
2019-03-08T11:04:58.709Z,61.30
2019-03-08T11:08:31.312Z,61.30
2019-03-08T11:12:13.089Z,61.73
2019-03-08T11:15:35.328Z,61.33
2019-03-08T11:18:52.181Z,62.07
2019-03-08T11:22:19.515Z,61.10
2019-03-08T11:25:52.218Z,62.30
2019-03-08T11:29:14.824Z,62.73
2019-03-08T11:32:36.085Z,60.93
2019-03-08T11:35:58.555Z,66.47
2019-03-08T11:39:20.842Z,76.60
2019-03-08T11:42:50.384Z,77.67
2019-03-08T11:46:13.914Z,83.97
2019-03-08T11:49:29.213Z,86.40
2019-03-08T11:52:55.556Z,95.63
2019-03-08T11:56:17.690Z,94.37
2019-03-08T11:59:53.248Z,97.67
2019-03-08T12:03:16.962Z,100.30
2019-03-08T12:06:52.629Z,98.87
2019-03-08T12:10:22.284Z,102.20
2019-03-08T12:13:45.966Z,101.37
2019-03-08T12:17:18.700Z,102.70
2019-03-08T12:20:28.257Z,103.90
2019-03-08T12:23:57.676Z,105.43
2019-03-08T12:27:13.489Z,104.03
2019-03-08T12:30:37.167Z,105.00
2019-03-08T12:33:59.519Z,95.70
2019-03-08T12:37:10.229Z,97.40
2019-03-08T12:40:33.926Z,101.00
2019-03-08T12:43:52.091Z,101.87
2019-03-08T12:47:15.843Z,97.90
2019-03-08T12:50:28.855Z,97.70
2019-03-08T12:53:52.497Z,98.70
2019-03-08T12:57:19.385Z,96.00
2019-03-08T13:00:41.661Z,95.10
2019-03-08T13:04:14.629Z,90.77
2019-03-08T13:07:41.145Z,93.50
2019-03-08T13:10:45.883Z,90.80
2019-03-08T13:13:50.776Z,92.37
2019-03-08T13:16:55.709Z,88.30
2019-03-08T13:20:00.345Z,88.70
2019-03-08T13:23:05.078Z,87.83
2019-03-08T13:26:09.993Z,85.90
2019-03-08T13:29:14.930Z,82.30
2019-03-08T13:32:19.660Z,85.63
2019-03-08T13:35:26.350Z,84.77
2019-03-08T13:38:30.689Z,85.53
2019-03-08T13:41:35.381Z,87.83
2019-03-08T13:44:40.244Z,85.77
2019-03-08T13:47:44.968Z,87.43
2019-03-08T13:50:51.347Z,82.43
2019-03-08T13:53:56.125Z,80.13
2019-03-08T13:57:00.859Z,80.10
2019-03-08T14:00:05.681Z,80.20
2019-03-08T14:03:10.640Z,73.77
2019-03-08T14:06:15.377Z,74.20
2019-03-08T14:09:20.265Z,74.83
2019-03-08T14:12:25.042Z,74.57
2019-03-08T14:15:29.729Z,72.03
2019-03-08T14:18:34.597Z,73.70
2019-03-08T14:21:39.753Z,71.40
2019-03-08T14:24:46.041Z,74.10
2019-03-08T14:27:50.908Z,61.17
2019-03-08T14:31:14.619Z,57.40
2019-03-08T14:34:19.405Z,62.83
2019-03-08T14:37:24.200Z,64.63
2019-03-08T14:40:49.282Z,68.67
2019-03-08T14:44:10.364Z,68.93
2019-03-08T14:47:34.384Z,68.50
2019-03-08T14:50:39.225Z,68.73
2019-03-08T14:53:43.928Z,72.13
2019-03-08T14:56:48.559Z,70.73
2019-03-08T14:59:53.897Z,70.10
2019-03-08T15:02:58.845Z,70.20
2019-03-08T15:06:03.488Z,70.27
2019-03-08T15:09:11.309Z,71.20
2019-03-08T15:12:16.807Z,74.03
2019-03-08T15:15:21.765Z,76.70
2019-03-08T15:18:29.601Z,74.63
2019-03-08T15:21:36.685Z,72.23
2019-03-08T15:24:39.725Z,72.53
2019-03-08T15:27:44.540Z,72.43
2019-03-08T15:30:49.288Z,69.10
2019-03-08T15:33:54.107Z,70.50
2019-03-08T15:36:59.032Z,68.00
2019-03-08T15:40:04.993Z,69.27
2019-03-08T15:43:13.468Z,67.20
2019-03-08T15:46:18.710Z,66.20
2019-03-08T15:49:22.587Z,65.93
2019-03-08T15:52:27.477Z,66.60
2019-03-08T15:55:32.339Z,68.90
2019-03-08T15:58:37.269Z,64.63
2019-03-08T16:01:42.199Z,65.73
2019-03-08T16:04:50.118Z,63.63
2019-03-08T16:07:53.283Z,64.53
2019-03-08T16:10:58.130Z,65.90
2019-03-08T16:14:08.842Z,64.00
2019-03-08T16:17:09.413Z,62.90
2019-03-08T16:20:15.061Z,62.00
2019-03-08T16:23:21.805Z,60.47
2019-03-08T16:26:26.458Z,60.77
2019-03-08T16:29:31.198Z,62.20
2019-03-08T16:32:54.027Z,61.30
2019-03-08T16:36:08.066Z,62.43
2019-03-08T16:39:40.552Z,60.40
2019-03-08T16:43:07.653Z,59.67
2019-03-08T16:46:25.051Z,59.60
2019-03-08T16:49:39.877Z,59.67
2019-03-08T16:52:51.758Z,60.27
2019-03-08T16:56:12.007Z,60.60
2019-03-08T16:59:34.106Z,57.60
2019-03-08T17:03:04.073Z,57.43
2019-03-08T17:06:30.832Z,56.20
2019-03-08T17:09:46.392Z,56.90
2019-03-08T17:13:07.531Z,57.83
2019-03-08T17:16:38.858Z,56.67
2019-03-08T17:20:02.421Z,55.63
2019-03-08T17:23:19.521Z,54.40
2019-03-08T17:26:42.340Z,53.90
2019-03-08T17:30:05.970Z,54.90
2019-03-08T17:33:41.638Z,53.87
2019-03-08T17:37:11.168Z,53.90
2019-03-08T17:40:37.806Z,51.73
2019-03-08T17:44:16.533Z,51.30
2019-03-08T17:47:37.037Z,50.47
2019-03-08T17:51:00.090Z,51.00
2019-03-08T17:54:22.341Z,51.43
2019-03-08T17:57:49.270Z,50.03
2019-03-08T18:01:17.629Z,49.67
2019-03-08T18:04:32.328Z,49.10
2019-03-08T18:08:05.270Z,49.97
2019-03-08T18:11:32.060Z,48.90
2019-03-08T18:14:53.938Z,48.90
2019-03-08T18:18:13.393Z,47.97
2019-03-08T18:21:34.054Z,46.57
2019-03-08T18:24:57.305Z,47.10
2019-03-08T18:28:27.003Z,46.57
2019-03-08T18:31:45.396Z,46.43
2019-03-08T18:35:18.523Z,45.33
2019-03-08T18:38:40.767Z,44.87
2019-03-08T18:41:53.348Z,46.10
2019-03-08T18:45:29.019Z,45.37
2019-03-08T18:48:38.957Z,45.10
2019-03-08T18:51:53.868Z,42.53
2019-03-08T18:55:15.277Z,42.73
2019-03-08T18:58:29.818Z,43.67
2019-03-08T19:02:05.542Z,44.03
2019-03-08T19:05:27.735Z,43.13
2019-03-08T19:08:51.765Z,40.80
2019-03-08T19:12:12.850Z,40.33
2019-03-08T19:15:36.447Z,41.57
2019-03-08T19:19:04.225Z,41.40
2019-03-08T19:22:33.705Z,40.10
2019-03-08T19:25:56.027Z,42.10
2019-03-08T19:29:11.489Z,41.23
2019-03-08T19:32:31.113Z,40.00
2019-03-08T19:35:55.836Z,38.90
2019-03-08T19:39:19.525Z,38.00
2019-03-08T19:42:58.485Z,38.23
2019-03-08T19:46:22.095Z,38.60
2019-03-08T19:49:48.477Z,39.43
2019-03-08T19:53:06.395Z,37.87
2019-03-08T19:56:35.860Z,39.77
2019-03-08T19:59:59.402Z,35.80
2019-03-08T20:03:22.799Z,36.53
2019-03-08T20:06:46.599Z,36.47
2019-03-08T20:10:14.735Z,35.60
2019-03-08T20:13:38.795Z,36.60
2019-03-08T20:17:02.418Z,35.63
2019-03-08T20:20:33.309Z,34.70
2019-03-08T20:23:55.482Z,33.77
2019-03-08T20:27:17.645Z,33.40
2019-03-08T20:30:40.183Z,33.47
2019-03-08T20:33:53.343Z,33.27
2019-03-08T20:37:26.115Z,33.00
2019-03-08T20:41:02.104Z,32.80
2019-03-08T20:44:12.367Z,32.07
2019-03-08T20:47:24.771Z,33.83
2019-03-08T20:50:29.702Z,32.10
2019-03-08T20:53:34.650Z,30.90
2019-03-08T20:56:39.271Z,31.47
2019-03-08T20:59:44.116Z,30.47
2019-03-08T21:02:48.933Z,31.23
2019-03-08T21:05:53.905Z,30.60
2019-03-08T21:08:58.765Z,30.53
2019-03-08T21:12:03.308Z,30.70
2019-03-08T21:15:09.892Z,30.27
2019-03-08T21:18:14.914Z,29.97
2019-03-08T21:21:19.844Z,29.30
2019-03-08T21:24:26.695Z,28.50
2019-03-08T21:27:31.379Z,28.50
2019-03-08T21:30:36.077Z,27.93
2019-03-08T21:33:40.892Z,28.00
2019-03-08T21:36:45.845Z,28.33
2019-03-08T21:39:50.790Z,28.20
2019-03-08T21:42:55.735Z,28.77
2019-03-08T21:46:00.352Z,26.70
2019-03-08T21:49:05.270Z,25.93
2019-03-08T21:52:10.112Z,27.27
2019-03-08T21:55:15.065Z,26.40
2019-03-08T21:58:19.851Z,25.90
2019-03-08T22:01:24.485Z,27.10
2019-03-08T22:04:42.817Z,25.90
2019-03-08T22:07:47.654Z,26.00
2019-03-08T22:11:10.102Z,25.97
2019-03-08T22:14:14.826Z,25.30
2019-03-08T22:17:19.663Z,24.90
2019-03-08T22:20:24.386Z,25.00
2019-03-08T22:23:29.303Z,25.30
2019-03-08T22:26:34.125Z,25.30
2019-03-08T22:29:38.956Z,24.80
2019-03-08T22:32:43.803Z,24.03
2019-03-08T22:35:48.612Z,22.57
2019-03-08T22:38:53.346Z,24.07
2019-03-08T22:41:58.161Z,22.60
2019-03-08T22:45:02.910Z,22.70
2019-03-08T22:48:07.733Z,23.03
2019-03-08T22:51:12.694Z,22.70
2019-03-08T22:54:17.605Z,22.90
2019-03-08T22:57:22.501Z,22.63
2019-03-08T23:00:36.937Z,21.23
2019-03-08T23:03:43.033Z,20.80
2019-03-08T23:06:47.909Z,21.40
2019-03-08T23:09:52.705Z,21.57
2019-03-08T23:12:57.432Z,21.40
2019-03-08T23:16:02.165Z,19.60
2019-03-08T23:19:06.577Z,21.60
2019-03-08T23:22:11.396Z,20.50
2019-03-08T23:25:16.253Z,20.50
2019-03-08T23:28:43.218Z,18.70
2019-03-08T23:32:07.506Z,18.70
2019-03-08T23:35:12.297Z,18.93
2019-03-08T23:38:16.906Z,18.30
2019-03-08T23:41:21.750Z,19.30
2019-03-08T23:44:26.575Z,18.33
2019-03-08T23:47:31.412Z,18.50
2019-03-08T23:50:36.065Z,18.20
2019-03-08T23:53:40.772Z,18.20
2019-03-08T23:56:45.742Z,16.83
2019-03-08T23:59:50.621Z,18.00
